Bellevue, Idaho
Current Conditions -  °F | °C
As of 8:47 AM on Wednesday 26 Nov 2014 (Local Time) from KSUN Reporting Station
Scattered Clouds Scattered Clouds  
Wind Chill: 26°   Ceiling: Unl
Heat Index: 32°   Visibility: 10mi
Dew Point: 30°   Wind: 6mph
Humidity: 93%   Direction: 320°NW
Pressure: 30.3"   Gusts: NA
Location:  43.46°N, 114.26°W
Report Text: KSUN 261547Z 32005KT 10SM SCT130 00/M01 A3030
Loading
Personal Weather Stations






























Interactive Weather Map New forecast layout! Learn more

10-Day Weather Forecast

Advertisements
Track Severe Weather on mobile